Time;durP1;ratioP1;P1;durP2;ratioP2;P2;SDS_P1;SDS_P2;PMS_P1;PMS_P2;Temp;Humidity;BMP_temperature;BMP_pressure;BME280_temperature;BME280_humidity;BME280_pressure;Samples;Min_cycle;Max_cycle;Signal;HPM_P1;HPM_P2
2023/01/28 00:02:21;;;;;;;2.00;1.90;;;;;;;4.65;100.00;27073.03;5035745;28;20232;-63
2023/01/28 00:04:49;;;;;;;1.90;1.80;;;;;;;4.64;100.00;26434.19;5053436;28;20197;-65
2023/01/28 00:07:17;;;;;;;2.13;2.03;;;;;;;4.62;100.00;27071.31;5053516;28;20190;-64
2023/01/28 00:09:44;;;;;;;1.70;1.70;;;;;;;4.62;100.00;25476.38;5053533;28;20259;-63
2023/01/28 00:12:11;;;;;;;1.67;1.57;;;;;;;4.59;100.00;24518.84;5053963;28;20197;-63
2023/01/28 00:14:38;;;;;;;1.60;1.60;;;;;;;4.62;100.00;24201.19;5053261;28;20195;-64
2023/01/28 00:17:06;;;;;;;1.30;1.30;;;;;;;4.59;100.00;24200.06;5053448;28;20189;-64
2023/01/28 00:19:32;;;;;;;1.23;1.23;;;;;;;4.72;100.00;23567.81;5053039;28;20186;-63
2023/01/28 00:21:59;;;;;;;1.47;1.40;;;;;;;4.79;100.00;24208.81;5053383;28;20209;-63
2023/01/28 00:24:27;;;;;;;1.40;1.40;;;;;;;4.73;100.00;24843.66;5053480;28;20526;-63
2023/01/28 00:26:54;;;;;;;1.20;1.20;;;;;;;4.71;100.00;25161.66;5053627;28;20556;-64
2023/01/28 00:29:21;;;;;;;1.40;1.40;;;;;;;4.66;100.00;24521.81;5053033;28;20185;-64
2023/01/28 00:31:48;;;;;;;1.10;1.10;;;;;;;4.58;100.00;23243.44;5052928;28;20182;-63
2023/01/28 00:34:15;;;;;;;1.23;1.23;;;;;;;4.58;100.00;23561.91;5053276;28;20197;-64
2023/01/28 00:36:42;;;;;;;1.40;1.40;;;;;;;4.49;100.00;21965.25;5053048;28;20229;-64
2023/01/28 00:39:13;;;;;;;1.80;1.70;;;;;;;4.40;100.00;21006.31;5052683;28;20192;-63
2023/01/28 00:41:42;;;;;;;1.50;1.40;;;;;;;4.51;100.00;20373.66;5052991;28;20572;-64
2023/01/28 00:44:09;;;;;;;1.50;1.50;;;;;;;4.52;100.00;20055.69;5035202;28;20560;-63
2023/01/28 00:46:36;;;;;;;1.87;1.53;;;;;;;4.47;100.00;21009.06;5052864;28;20620;-64
2023/01/28 00:49:03;;;;;;;1.97;1.87;;;;;;;4.44;100.00;19734.38;5052364;28;20190;-64
2023/01/28 00:51:30;;;;;;;1.47;1.37;;;;;;;4.36;100.00;18776.84;5052852;28;20189;-63
2023/01/28 00:53:56;;;;;;;1.43;1.43;;;;;;;4.42;100.00;17824.63;5052417;28;20189;-66
2023/01/28 00:56:23;;;;;;;1.60;1.50;;;;;;;4.28;100.00;19092.06;5052872;28;20193;-62
2023/01/28 00:58:51;;;;;;;1.73;1.63;;;;;;;4.30;100.00;18456.75;5052610;28;20182;-62
2023/01/28 01:01:20;;;;;;;1.70;1.60;;;;;;;4.36;100.00;19095.16;5035126;28;20186;-64
2023/01/28 01:03:53;;;;;;;2.10;2.00;;;;;;;4.37;100.00;19731.94;5052231;28;20209;-64
2023/01/28 01:06:21;;;;;;;1.60;1.50;;;;;;;4.34;100.00;20048.84;5052409;28;20231;-64
2023/01/28 01:08:49;;;;;;;1.60;1.60;;;;;;;4.30;100.00;20684.03;5052223;28;20185;-63
2023/01/28 01:11:18;;;;;;;1.50;1.50;;;;;;;4.31;100.00;20365.97;5034547;28;20185;-64
2023/01/28 01:13:45;;;;;;;2.10;2.00;;;;;;;4.21;100.00;20043.91;5034730;28;20235;-64
2023/01/28 01:16:16;;;;;;;2.03;1.93;;;;;;;4.26;100.00;20046.00;5052393;28;20186;-64
2023/01/28 01:18:44;;;;;;;2.10;2.00;;;;;;;4.26;100.00;20045.81;5052395;28;20193;-64
2023/01/28 01:21:12;;;;;;;2.30;2.20;;;;;;;4.25;100.00;21318.47;5052308;28;20181;-64
2023/01/28 01:23:39;;;;;;;2.57;2.47;;;;;;;4.16;100.00;20996.81;5051964;28;20209;-64
2023/01/28 01:26:07;;;;;;;2.37;2.27;;;;;;;4.07;100.00;19720.72;5052060;28;20288;-64
2023/01/28 01:28:33;;;;;;;2.40;2.30;;;;;;;4.18;100.00;19724.63;5052064;28;20687;-64
2023/01/28 01:31:01;;;;;;;2.60;2.50;;;;;;;4.14;100.00;20359.81;5034219;28;20193;-64
2023/01/28 01:33:31;;;;;;;3.03;2.83;;;;;;;4.06;100.00;20993.06;5052005;28;20658;-64
2023/01/28 01:35:59;;;;;;;2.60;2.50;;;;;;;4.01;100.00;20672.94;5052230;28;20229;-62
2023/01/28 01:38:26;;;;;;;3.00;2.90;;;;;;;4.07;100.00;20038.81;5051751;28;20190;-64
2023/01/28 01:40:57;;;;;;;3.00;2.87;;;;;;;4.04;100.00;19719.59;5052367;28;20580;-63
2023/01/28 01:43:24;;;;;;;3.13;3.03;;;;;;;3.87;100.00;20667.28;5051386;28;20209;-64
2023/01/28 01:45:57;;;;;;;2.83;2.63;;;;;;;3.92;100.00;21305.66;5051681;28;20194;-63
2023/01/28 01:48:29;;;;;;;3.20;3.10;;;;;;;3.81;100.00;20347.13;5051782;28;20216;-64
2023/01/28 01:51:02;;;;;;;3.03;2.93;;;;;;;3.61;100.00;19703.88;5051391;28;20185;-64
2023/01/28 01:53:31;;;;;;;2.67;2.57;;;;;;;3.79;100.00;20982.41;5052387;28;20185;-63
2023/01/28 01:56:02;;;;;;;3.07;2.97;;;;;;;3.78;100.00;20663.97;5052062;28;20560;-63
2023/01/28 01:58:33;;;;;;;2.90;2.80;;;;;;;3.66;100.00;21295.47;5051580;28;20193;-64
2023/01/28 02:01:00;;;;;;;2.53;2.43;;;;;;;3.60;100.00;21292.88;5051465;28;20199;-64
2023/01/28 02:03:31;;;;;;;2.40;2.30;;;;;;;3.62;100.00;22566.09;5051425;28;20205;-64
2023/01/28 02:06:00;;;;;;;2.73;2.63;;;;;;;3.57;100.00;22882.09;5051786;28;20181;-63
2023/01/28 02:08:26;;;;;;;2.63;2.53;;;;;;;3.56;100.00;22245.28;5051494;28;20227;-63
2023/01/28 02:10:57;;;;;;;2.40;2.30;;;;;;;3.47;100.00;22559.56;5051633;28;20672;-64
2023/01/28 02:13:29;;;;;;;2.50;2.40;;;;;;;3.27;100.00;23187.09;5051523;28;20186;-65
2023/01/28 02:15:57;;;;;;;2.97;2.80;;;;;;;3.43;100.00;22557.91;5051365;28;20193;-64
2023/01/28 02:18:24;;;;;;;2.83;2.73;;;;;;;3.35;100.00;22236.56;5051333;28;20198;-65
2023/01/28 02:21:17;;;;;;;2.77;2.67;;;;;;;3.32;100.00;24143.44;5033863;28;20199;-64
2023/01/28 02:24:03;;;;;;;2.50;2.40;;;;;;;3.24;100.00;25094.44;5051184;28;20204;-64
2023/01/28 02:26:52;;;;;;;3.00;2.80;;;;;;;3.23;100.00;24775.84;5051389;28;20204;-64
2023/01/28 02:29:27;;;;;;;2.63;2.53;;;;;;;3.11;100.00;25724.91;5051057;28;20192;-64
2023/01/28 02:31:59;;;;;;;2.30;2.20;;;;;;;3.14;100.00;25407.94;5051383;28;20196;-64
2023/01/28 02:34:35;;;;;;;2.57;2.47;;;;;;;3.17;100.00;25409.59;5051755;28;20208;-64
2023/01/28 02:37:09;;;;;;;2.57;2.47;;;;;;;3.05;100.00;25722.06;5033738;28;20189;-64
2023/01/28 02:39:41;;;;;;;2.67;2.57;;;;;;;3.04;100.00;24131.38;5051057;28;20275;-64
2023/01/28 02:42:12;;;;;;;2.60;2.40;;;;;;;3.13;100.00;23817.41;5051984;28;20671;-64
2023/01/28 02:44:40;;;;;;;2.30;2.10;;;;;;;3.07;100.00;25086.56;5051220;28;20187;-63
2023/01/28 02:49:56;;;;;;;2.60;2.50;;;;;;;3.15;100.00;23818.28;5010834;28;20293;-64
2023/01/28 02:55:29;;;;;;;2.40;2.30;;;;;;;3.03;100.00;25402.78;5052406;28;20291;-63
2023/01/28 02:58:05;;;;;;;3.13;2.93;;;;;;;3.06;100.00;25722.31;5055449;28;20219;-64
2023/01/28 03:00:40;;;;;;;2.93;2.73;;;;;;;3.01;100.00;26674.63;5054904;28;20185;-63
2023/01/28 03:03:15;;;;;;;2.67;2.57;;;;;;;2.85;100.00;27939.50;5054670;28;20215;-64
2023/01/28 03:06:02;;;;;;;2.83;2.73;;;;;;;2.78;100.00;28572.41;5054963;28;20199;-64
2023/01/28 03:39:02;;;;;;;3.63;3.43;;;;;;;2.53;100.00;36203.16;5054228;28;20218;-64
2023/01/28 03:41:28;;;;;;;3.50;3.30;;;;;;;2.48;100.00;36199.91;5053949;28;20204;-64
2023/01/28 03:43:55;;;;;;;3.43;3.23;;;;;;;2.53;100.00;37159.84;5053738;28;20224;-63
2023/01/28 03:46:22;;;;;;;3.90;3.70;;;;;;;2.49;100.00;38752.22;5053996;28;20231;-64
2023/01/28 03:48:51;;;;;;;3.60;3.40;;;;;;;2.52;100.00;40669.75;5054081;28;20201;-64
2023/01/28 03:51:17;;;;;;;5.23;4.00;;;;;;;2.34;100.00;42572.38;5053900;28;20212;-64
2023/01/28 03:53:44;;;;;;;3.13;3.03;;;;;;;2.53;100.00;42905.81;5053774;28;20181;-64
2023/01/28 03:56:18;;;;;;;3.70;3.50;;;;;;;2.58;100.00;45466.72;5053902;28;20227;-63
2023/01/28 03:58:55;;;;;;;3.90;3.70;;;;;;;2.43;100.00;45135.03;5053476;28;20201;-64
2023/01/28 04:01:22;;;;;;;3.50;3.30;;;;;;;2.53;100.00;45782.44;5053658;28;20192;-64
2023/01/28 04:03:50;;;;;;;3.60;3.40;;;;;;;2.46;100.00;49615.72;5053439;28;20220;-64
2023/01/28 04:06:17;;;;;;;3.57;3.37;;;;;;;2.33;100.00;53767.72;5053242;28;20193;-64
2023/01/28 04:08:51;;;;;;;3.50;3.30;;;;;;;2.37;100.00;54411.94;5053043;28;20193;-61
2023/01/28 04:11:20;;;;;;;4.10;3.70;;;;;;;2.51;100.00;55066.47;5036645;28;20191;-64
2023/01/28 04:13:47;;;;;;;3.60;3.40;;;;;;;2.34;100.00;58257.56;5053181;28;20188;-64
2023/01/28 04:16:17;;;;;;;4.17;3.87;;;;;;;2.48;100.00;58913.19;5053471;28;20209;-64
2023/01/28 04:18:45;;;;;;;4.33;4.13;;;;;;;2.26;100.00;64350.78;5053658;28;20189;-63
2023/01/28 04:21:13;;;;;;;3.83;3.63;;;;;;;2.34;100.00;66288.25;5053609;28;20209;-63
2023/01/28 04:23:40;;;;;;;3.70;3.50;;;;;;;2.32;100.00;64356.38;5053337;28;20584;-63
2023/01/28 04:26:07;;;;;;;3.60;3.40;;;;;;;2.28;100.00;61782.84;5053309;28;20647;-64
2023/01/28 04:28:34;;;;;;;3.30;3.20;;;;;;;2.32;100.00;61786.06;5053003;28;20231;-63
2023/01/28 04:31:01;;;;;;;3.73;3.53;;;;;;;2.17;100.00;59845.00;5053058;28;20185;-64
2023/01/28 04:33:27;;;;;;;3.50;3.30;;;;;;;2.29;100.00;58573.84;5052989;28;20571;-64
2023/01/28 04:35:54;;;;;;;3.40;3.20;;;;;;;2.28;100.00;58252.00;5053052;28;20236;-63
2023/01/28 04:38:23;;;;;;;3.50;3.30;;;;;;;2.29;100.00;60820.56;5053314;28;20211;-64
2023/01/28 04:40:50;;;;;;;3.60;3.40;;;;;;;2.22;100.00;63061.13;5052824;28;20196;-63
2023/01/28 04:43:18;;;;;;;4.07;3.20;;;;;;;2.25;100.00;64992.50;5052676;28;20213;-63
2023/01/28 04:45:46;;;;;;;3.50;3.23;;;;;;;2.28;100.00;64995.31;5053064;28;20213;-63
2023/01/28 04:48:13;;;;;;;3.57;3.37;;;;;;;2.29;100.00;64032.22;5052863;28;20200;-65
2023/01/28 04:50:40;;;;;;;3.80;3.70;;;;;;;2.23;100.00;67562.66;5052741;28;20233;-64
2023/01/28 04:53:07;;;;;;;3.80;3.60;;;;;;;2.29;100.00;73043.00;5052243;28;20188;-64
2023/01/28 04:55:36;;;;;;;3.27;3.17;;;;;;;2.14;100.00;71413.13;5052591;28;20193;-63
2023/01/28 04:58:03;;;;;;;3.63;3.43;;;;;;;2.26;100.00;65958.09;5052589;28;20197;-63
2023/01/28 05:00:30;;;;;;;4.03;3.83;;;;;;;2.30;100.00;65641.13;5052166;28;20190;-64
2023/01/28 05:02:57;;;;;;;3.53;3.33;;;;;;;2.33;100.00;64678.94;5052609;28;20190;-64
2023/01/28 05:05:24;;;;;;;3.13;2.93;;;;;;;2.41;100.00;67260.81;5034873;28;20628;-63
2023/01/28 05:07:52;;;;;;;3.60;3.40;;;;;;;2.36;100.00;72406.13;5052197;28;20184;-63
2023/01/28 05:10:19;;;;;;;4.00;3.80;;;;;;;2.32;100.00;71113.31;5052606;28;20193;-64
2023/01/28 05:12:48;;;;;;;3.50;3.40;;;;;;;2.35;100.00;72082.72;5052201;28;20254;-64
2023/01/28 05:15:15;;;;;;;3.90;3.70;;;;;;;2.26;100.00;72394.25;5052124;28;20188;-63
2023/01/28 05:17:42;;;;;;;4.07;3.87;;;;;;;2.29;100.00;70465.63;5052410;28;20192;-64
2023/01/28 05:20:11;;;;;;;3.80;3.60;;;;;;;2.34;100.00;72726.44;5051042;28;20196;-63
2023/01/28 05:22:38;;;;;;;3.93;3.73;;;;;;;2.32;100.00;75624.34;5052253;28;20196;-62
2023/01/28 05:25:06;;;;;;;3.83;3.63;;;;;;;2.23;100.00;79808.03;5052294;28;20205;-63
2023/01/28 05:27:34;;;;;;;3.60;3.40;;;;;;;2.19;100.00;83678.31;5051964;28;20193;-63
2023/01/28 05:30:02;;;;;;;3.17;3.07;;;;;;;2.23;100.00;84977.09;5052125;28;20196;-63
2023/01/28 05:32:29;;;;;;;4.00;3.80;;;;;;;2.17;100.00;84967.56;5052288;28;20243;-63
2023/01/28 05:34:56;;;;;;;4.20;3.90;;;;;;;2.23;100.00;82391.59;5051912;28;20457;-64
2023/01/28 05:37:22;;;;;;;4.50;4.30;;;;;;;2.15;100.00;82703.28;5051920;28;20186;-65
2023/01/28 05:39:49;;;;;;;4.17;3.97;;;;;;;2.18;100.00;80123.97;5051909;28;20190;-64
2023/01/28 05:42:17;;;;;;;3.93;3.73;;;;;;;1.88;100.00;79759.88;5051959;28;20205;-64
2023/01/28 05:44:44;;;;;;;3.70;3.50;;;;;;;2.03;100.00;77521.59;5051848;28;20279;-63
2023/01/28 05:47:12;;;;;;;4.43;4.23;;;;;;;1.80;100.00;77813.88;5051921;28;20632;-64
2023/01/28 05:49:39;;;;;;;4.00;3.80;;;;;;;1.83;100.00;79431.09;5051906;28;20616;-63
2023/01/28 05:52:06;;;;;;;4.30;4.10;;;;;;;1.99;100.00;79452.34;5051631;28;20190;-64
2023/01/28 05:54:33;;;;;;;3.50;3.40;;;;;;;1.92;100.00;79119.44;5051422;28;20182;-63
2023/01/28 05:57:00;;;;;;;4.10;3.87;;;;;;;1.85;100.00;71056.13;5051853;28;20193;-64
2023/01/28 05:59:26;;;;;;;5.13;4.83;;;;;;;1.92;100.00;66561.97;5051800;28;20193;-63
2023/01/28 06:01:53;;;;;;;4.47;4.27;;;;;;;2.02;100.00;64645.28;5051719;28;20648;-64
2023/01/28 06:04:21;;;;;;;4.50;4.30;;;;;;;1.78;100.00;67510.56;5051661;28;20689;-63
2023/01/28 06:06:48;;;;;;;4.47;4.27;;;;;;;1.92;100.00;70421.13;5051206;28;20200;-64
2023/01/28 06:09:15;;;;;;;4.70;4.40;;;;;;;1.98;100.00;76548.28;5051619;28;20196;-64
2023/01/28 06:11:43;;;;;;;4.30;4.10;;;;;;;1.95;100.00;81059.75;5051675;28;20185;-63
2023/01/28 06:14:10;;;;;;;4.00;3.80;;;;;;;1.94;100.00;82996.31;5051143;28;20177;-64
2023/01/28 06:16:37;;;;;;;5.10;4.80;;;;;;;1.92;100.00;80088.03;5051540;28;20194;-65
2023/01/28 06:19:04;;;;;;;4.77;4.47;;;;;;;1.86;100.00;74276.94;5051808;28;20189;-64
2023/01/28 06:21:32;;;;;;;4.80;4.50;;;;;;;1.98;100.00;71394.00;5051691;28;20197;-64
2023/01/28 06:23:59;;;;;;;4.33;4.03;;;;;;;1.96;100.00;72357.31;5051394;28;20660;-64
2023/01/28 06:26:25;;;;;;;5.00;4.80;;;;;;;1.83;100.00;73307.56;5051493;28;20283;-65
2023/01/28 06:28:52;;;;;;;4.53;4.17;;;;;;;1.94;100.00;77187.09;5051417;28;20186;-64
2023/01/28 06:31:19;;;;;;;5.17;4.77;;;;;;;1.84;100.00;74596.47;5054273;28;20564;-63
2023/01/28 06:33:46;;;;;;;4.40;4.20;;;;;;;1.79;100.00;75234.94;5055352;28;20204;-62
2023/01/28 06:36:13;;;;;;;4.70;4.50;;;;;;;1.87;100.00;73634.03;5055048;28;20237;-64
2023/01/28 06:38:41;;;;;;;4.97;4.67;;;;;;;1.81;100.00;74914.72;5055396;28;20197;-64
2023/01/28 06:41:08;;;;;;;4.63;4.43;;;;;;;1.70;100.00;77801.09;5054853;28;20200;-64
2023/01/28 06:43:35;;;;;;;5.20;5.00;;;;;;;1.87;100.00;78467.56;5055373;28;20228;-64
2023/01/28 06:46:02;;;;;;;4.33;4.13;;;;;;;1.93;100.00;83317.84;5054779;28;20196;-65
2023/01/28 06:48:29;;;;;;;5.17;4.87;;;;;;;1.91;100.00;93989.06;5036957;28;20182;-64
2023/01/28 06:50:56;;;;;;;5.20;4.90;;;;;;;1.90;100.00;91721.19;5055085;28;20624;-64
2023/01/28 06:53:23;;;;;;;5.13;4.83;;;;;;;1.69;100.00;93307.47;5054759;28;20189;-65
2023/01/28 06:55:51;;;;;;;5.27;5.07;;;;;;;1.72;100.00;89105.19;5054558;28;20185;-64
2023/01/28 06:58:18;;;;;;;3.90;3.70;;;;;;;1.76;100.00;83616.34;5054571;28;20193;-64
2023/01/28 07:00:45;;;;;;;5.77;5.47;;;;;;;1.78;100.00;85235.03;5054932;28;20186;-64
2023/01/28 07:03:11;;;;;;;5.80;5.40;;;;;;;1.77;100.00;82649.13;5055123;28;20208;-63
2023/01/28 07:05:39;;;;;;;6.20;5.70;;;;;;;1.80;100.00;82330.53;5054671;28;20288;-63
2023/01/28 07:08:05;;;;;;;6.40;5.90;;;;;;;1.62;100.00;83273.34;5054860;28;20185;-63
2023/01/28 07:10:32;;;;;;;6.20;5.90;;;;;;;1.86;100.00;84922.22;5054727;28;20181;-64
2023/01/28 07:13:01;;;;;;;6.37;5.97;;;;;;;1.92;100.00;85578.06;5054673;28;20189;-64
2023/01/28 07:15:27;;;;;;;5.83;5.50;;;;;;;1.95;100.00;86875.59;5054429;28;20204;-65
2023/01/28 07:17:54;;;;;;;6.20;5.90;;;;;;;1.96;100.00;82030.34;5054708;28;20197;-64
2023/01/28 07:20:22;;;;;;;6.53;6.13;;;;;;;2.03;100.00;77522.25;5054497;28;20628;-64
2023/01/28 07:22:49;;;;;;;6.30;6.00;;;;;;;2.20;100.00;75932.41;5054131;28;20193;-64
2023/01/28 07:25:16;;;;;;;6.00;5.70;;;;;;;2.27;100.00;86275.75;5054158;28;20209;-64
2023/01/28 07:27:51;;;;;;;5.47;5.17;;;;;;;2.27;100.00;91454.81;5054419;28;20636;-64
2023/01/28 07:30:20;;;;;;;6.63;6.23;;;;;;;2.32;100.00;91785.84;5054508;28;20188;-64
2023/01/28 07:32:52;;;;;;;6.10;5.70;;;;;;;2.46;100.00;93753.66;5054539;28;20589;-64
2023/01/28 07:35:19;;;;;;;5.40;5.10;;;;;;;2.54;100.00;99933.63;5054058;28;20229;-64
2023/01/28 07:37:52;;;;;;;5.60;5.30;;;;;;;2.63;100.00;109058.66;5054151;28;20190;-63
2023/01/28 07:40:19;;;;;;;5.87;5.57;;;;;;;2.74;100.00;114948.13;5053976;28;20205;-65
2023/01/28 07:42:46;;;;;;;5.70;5.40;;;;;;;2.84;100.00;134508.19;5052813;28;20197;-64
2023/01/28 07:45:13;;;;;;;5.97;5.67;;;;;;;2.86;100.00;144348.28;5053790;28;20204;-63
2023/01/28 07:47:41;;;;;;;6.53;6.13;;;;;;;2.91;100.00;146789.25;5036133;28;20195;-64
2023/01/28 07:50:10;;;;;;;6.60;6.30;;;;;;;3.08;100.00;146831.97;5053536;28;20194;-63
2023/01/28 07:52:43;;;;;;;6.07;5.77;;;;;;;3.08;100.00;146831.97;5053724;28;20190;-63
2023/01/28 07:55:11;;;;;;;6.20;5.80;;;;;;;3.26;100.00;146874.66;5053726;28;20225;-64
2023/01/28 07:57:38;;;;;;;6.40;6.10;;;;;;;3.09;100.00;146834.47;5053650;28;20185;-63
2023/01/28 08:00:06;;;;;;;7.23;6.60;;;;;;;3.24;100.00;146870.88;5053560;28;20189;-64
2023/01/28 08:02:33;;;;;;;6.40;6.10;;;;;;;3.32;100.00;146889.72;5053796;28;20639;-64
2023/01/28 08:05:01;;;;;;;7.40;6.80;;;;;;;3.31;100.00;146887.25;5053387;28;20216;-64
2023/01/28 08:07:28;;;;;;;6.87;6.57;;;;;;;3.28;100.00;146879.66;5035862;28;20200;-63
2023/01/28 08:09:55;;;;;;;7.73;6.93;;;;;;;3.29;100.00;146883.47;5053683;28;20185;-63
2023/01/28 08:12:22;;;;;;;8.07;7.57;;;;;;;3.28;100.00;146880.94;5053975;28;20572;-63
2023/01/28 08:14:49;;;;;;;7.90;7.50;;;;;;;3.11;100.00;146838.22;5053317;28;20193;-64
2023/01/28 08:17:16;;;;;;;8.37;7.87;;;;;;;3.33;100.00;146893.50;5054040;28;20194;-62
2023/01/28 08:19:42;;;;;;;7.73;7.03;;;;;;;3.41;100.00;146912.34;5053490;28;20636;-61
2023/01/28 08:22:13;;;;;;;8.30;7.73;;;;;;;3.52;100.00;146940.00;5052989;28;20185;-61
2023/01/28 08:24:40;;;;;;;7.43;7.07;;;;;;;3.57;100.00;146952.53;5052878;28;20248;-64
2023/01/28 08:27:07;;;;;;;8.03;7.53;;;;;;;3.67;100.00;146978.97;5052940;28;20200;-60
2023/01/28 08:29:34;;;;;;;8.20;7.70;;;;;;;3.64;100.00;146970.16;5053026;28;20214;-62
2023/01/28 08:32:01;;;;;;;7.50;7.10;;;;;;;3.52;100.00;146940.00;5052865;28;20196;-61
2023/01/28 08:34:28;;;;;;;9.47;8.03;;;;;;;3.57;100.00;146953.81;5053027;28;20208;-60
2023/01/28 08:36:55;;;;;;;8.10;7.60;;;;;;;3.51;100.00;146937.50;5034986;28;20189;-62
2023/01/28 08:39:23;;;;;;;9.13;8.33;;;;;;;3.74;100.00;146995.28;5053020;28;20182;-61
2023/01/28 08:41:50;;;;;;;7.53;7.03;;;;;;;3.76;100.00;147000.31;5052906;28;20549;-60
2023/01/28 08:44:17;;;;;;;11.63;8.53;;;;;;;3.62;100.00;146966.38;5052574;28;20206;-60
2023/01/28 08:46:44;;;;;;;15.87;10.80;;;;;;;3.58;100.00;146956.34;5052620;28;20188;-61
2023/01/28 08:49:10;;;;;;;12.10;10.97;;;;;;;3.62;100.00;146966.38;5034675;28;20189;-62
2023/01/28 08:51:37;;;;;;;9.63;8.93;;;;;;;3.57;100.00;146952.53;5052396;28;20182;-62
2023/01/28 08:54:04;;;;;;;8.50;7.93;;;;;;;3.45;100.00;146923.66;5052186;28;20189;-60
2023/01/28 08:56:32;;;;;;;9.63;8.57;;;;;;;3.41;100.00;146913.59;5052597;28;20189;-61
2023/01/28 08:58:59;;;;;;;8.03;7.63;;;;;;;3.04;100.00;146820.66;5052323;28;20189;-62
2023/01/28 09:01:28;;;;;;;9.57;8.67;;;;;;;3.14;100.00;146845.78;5035046;28;20571;-61
2023/01/28 09:03:55;;;;;;;9.53;8.03;;;;;;;3.19;100.00;146859.56;5052481;28;20647;-62
2023/01/28 09:06:21;;;;;;;9.37;8.50;;;;;;;3.21;100.00;146863.34;5052106;28;20211;-60
2023/01/28 09:08:48;;;;;;;9.23;8.63;;;;;;;3.35;100.00;146898.56;5051933;28;20197;-60
2023/01/28 09:11:15;;;;;;;8.67;7.93;;;;;;;3.46;100.00;146926.19;5052408;28;20189;-62
2023/01/28 09:13:44;;;;;;;7.50;7.10;;;;;;;3.47;100.00;146927.44;5052310;28;20718;-61
2023/01/28 09:16:13;;;;;;;9.63;8.60;;;;;;;3.24;100.00;146870.88;5052013;28;20185;-61
2023/01/28 09:18:39;;;;;;;8.33;7.73;;;;;;;3.13;100.00;146844.53;5051997;28;20185;-62
2023/01/28 09:21:07;;;;;;;10.20;7.73;;;;;;;3.17;100.00;146854.56;5052219;28;20534;-60
2023/01/28 09:23:35;;;;;;;7.70;7.20;;;;;;;3.02;100.00;146816.84;5051895;28;20196;-61
2023/01/28 09:26:04;;;;;;;7.87;7.37;;;;;;;3.02;100.00;146816.84;5051797;28;20208;-61
2023/01/28 09:28:31;;;;;;;8.70;8.10;;;;;;;3.11;100.00;146838.22;5051823;28;20192;-61
2023/01/28 09:31:03;;;;;;;9.10;8.27;;;;;;;3.00;100.00;146811.88;5052040;28;20560;-61
2023/01/28 09:33:30;;;;;;;9.10;8.50;;;;;;;3.19;100.00;146858.31;5051988;28;20322;-61
2023/01/28 09:36:00;;;;;;;9.33;8.57;;;;;;;3.19;100.00;146858.31;5051462;28;20217;-60
2023/01/28 09:38:27;;;;;;;9.03;8.33;;;;;;;3.13;100.00;146843.28;5051707;28;20195;-61
2023/01/28 09:40:54;;;;;;;9.30;8.70;;;;;;;3.26;100.00;146875.94;5051772;28;20205;-61
2023/01/28 09:43:41;;;;;;;8.23;7.73;;;;;;;3.12;100.00;146840.75;5051736;28;20250;-62
2023/01/28 09:46:13;;;;;;;8.87;8.27;;;;;;;3.14;100.00;146847.00;5051496;28;20206;-61
2023/01/28 09:48:44;;;;;;;9.00;8.17;;;;;;;3.04;100.00;146821.91;5051882;28;20220;-62
2023/01/28 09:51:31;;;;;;;11.10;8.83;;;;;;;2.96;100.00;146801.81;5051631;28;20635;-61
2023/01/28 09:54:04;;;;;;;9.03;8.53;;;;;;;3.12;100.00;146840.75;5051425;28;20185;-61
2023/01/28 09:56:36;;;;;;;9.57;8.87;;;;;;;3.13;100.00;146844.53;5051396;28;20275;-62
2023/01/28 09:59:17;;;;;;;9.30;8.60;;;;;;;3.17;100.00;146854.56;5051826;28;20249;-62
2023/01/28 10:01:51;;;;;;;9.97;9.30;;;;;;;3.26;100.00;146874.66;5051645;28;20636;-61
2023/01/28 10:04:38;;;;;;;11.10;10.13;;;;;;;2.95;100.00;146798.03;5052114;28;20670;-62
2023/01/28 10:07:17;;;;;;;11.90;10.80;;;;;;;3.21;100.00;146864.63;5058277;28;20552;-63
2023/01/28 10:09:51;;;;;;;9.80;9.20;;;;;;;3.23;100.00;146869.63;5057839;28;20191;-62
2023/01/28 10:12:39;;;;;;;10.07;9.20;;;;;;;3.15;100.00;146848.25;5058224;28;20189;-60
2023/01/28 10:15:22;;;;;;;11.27;10.13;;;;;;;3.54;100.00;146946.28;5058305;28;20208;-63
2023/01/28 10:17:54;;;;;;;9.60;8.77;;;;;;;3.61;100.00;146962.59;5058097;28;20196;-61
2023/01/28 10:20:27;;;;;;;12.07;9.67;;;;;;;3.44;100.00;146921.13;5057862;28;20189;-61
2023/01/28 10:23:00;;;;;;;10.67;9.73;;;;;;;3.76;100.00;147000.31;5057757;28;20189;-60
2023/01/28 10:25:31;;;;;;;9.60;8.80;;;;;;;3.58;100.00;146956.34;5057869;28;20213;-61
2023/01/28 10:28:00;;;;;;;10.23;9.37;;;;;;;3.66;100.00;146975.16;5057961;28;20192;-61
2023/01/28 10:30:30;;;;;;;10.30;9.60;;;;;;;3.51;100.00;146937.50;5057924;28;20182;-62
2023/01/28 10:33:03;;;;;;;10.10;9.30;;;;;;;3.60;100.00;146960.13;5057943;28;20202;-60
2023/01/28 10:35:34;;;;;;;10.50;9.47;;;;;;;3.55;100.00;146947.53;5057730;28;20232;-61
2023/01/28 10:38:06;;;;;;;9.77;9.07;;;;;;;3.38;100.00;146906.06;5058017;28;20514;-60
2023/01/28 10:40:34;;;;;;;11.00;10.00;;;;;;;3.65;100.00;146973.91;5058099;28;20559;-61
2023/01/28 10:43:01;;;;;;;10.07;9.33;;;;;;;3.41;100.00;146913.59;5057655;28;20196;-61
2023/01/28 10:45:32;;;;;;;10.17;9.47;;;;;;;3.38;100.00;146904.81;5057610;28;20209;-61
2023/01/28 10:48:07;;;;;;;10.33;9.33;;;;;;;3.32;100.00;146889.72;5057883;28;20193;-62
2023/01/28 10:50:34;;;;;;;9.50;8.73;;;;;;;3.33;100.00;146892.25;5057878;28;20181;-61
2023/01/28 10:53:03;;;;;;;9.90;9.20;;;;;;;3.27;100.00;146878.41;5057850;28;20186;-61
2023/01/28 10:55:34;;;;;;;9.53;8.93;;;;;;;3.27;100.00;146877.19;5058058;28;20190;-61
2023/01/28 10:58:04;;;;;;;10.20;9.30;;;;;;;3.29;100.00;146883.47;5040224;28;20181;-62
2023/01/28 11:00:35;;;;;;;11.23;10.20;;;;;;;3.17;100.00;146853.31;5057838;28;20200;-59
2023/01/28 11:03:03;;;;;;;11.17;10.27;;;;;;;3.12;100.00;146840.75;5057826;28;20568;-61
2023/01/28 11:05:31;;;;;;;11.00;10.10;;;;;;;2.74;100.00;146747.81;5039694;28;20216;-60
2023/01/28 11:08:07;;;;;;;11.03;9.93;;;;;;;2.97;100.00;146804.28;5057508;28;20185;-60
2023/01/28 11:10:36;;;;;;;10.50;9.70;;;;;;;3.02;100.00;146816.84;5057348;28;20185;-60
2023/01/28 11:13:05;;;;;;;11.93;10.70;;;;;;;3.01;100.00;146813.13;5057804;28;20194;-61
2023/01/28 11:15:33;;;;;;;11.03;10.13;;;;;;;2.95;100.00;146799.28;5057354;28;20181;-60
2023/01/28 11:18:05;;;;;;;10.60;9.80;;;;;;;2.82;100.00;146765.38;5054202;28;20189;-60
2023/01/28 11:20:37;;;;;;;11.07;10.07;;;;;;;2.79;100.00;146759.13;5054219;28;20279;-62
2023/01/28 11:23:04;;;;;;;12.10;11.10;;;;;;;2.75;100.00;146749.06;5054174;28;20193;-61
2023/01/28 11:25:34;;;;;;;12.37;11.17;;;;;;;2.85;100.00;146772.91;5054251;28;20216;-61
2023/01/28 11:28:03;;;;;;;12.00;11.03;;;;;;;2.77;100.00;146754.06;5054361;28;20218;-61
2023/01/28 11:30:32;;;;;;;11.80;10.87;;;;;;;2.87;100.00;146779.22;5053950;28;20189;-60
2023/01/28 11:33:08;;;;;;;11.47;10.47;;;;;;;2.88;100.00;146781.72;5054315;28;20188;-61
2023/01/28 11:35:35;;;;;;;12.23;11.03;;;;;;;2.77;100.00;146754.06;5054002;28;20549;-62
2023/01/28 11:38:01;;;;;;;12.27;11.10;;;;;;;2.78;100.00;146755.34;5054041;28;20648;-62
2023/01/28 11:40:29;;;;;;;12.57;11.37;;;;;;;2.61;100.00;146715.16;5054235;28;20541;-60
2023/01/28 11:42:57;;;;;;;13.77;11.90;;;;;;;2.53;100.00;146695.06;5054037;28;20189;-61
2023/01/28 11:45:36;;;;;;;12.73;11.53;;;;;;;2.42;100.00;146666.22;5053948;28;20237;-61
2023/01/28 11:48:30;;;;;;;12.63;11.30;;;;;;;2.46;100.00;146676.25;5053805;28;20195;-61
2023/01/28 11:51:04;;;;;;;11.50;10.40;;;;;;;2.49;100.00;146683.78;5050076;28;20201;-62
2023/01/28 11:53:54;;;;;;;12.60;10.90;;;;;;;2.35;100.00;146649.88;5053884;28;20188;-60
2023/01/28 11:56:42;;;;;;;12.67;11.30;;;;;;;2.52;100.00;146691.28;5053487;28;20258;-60
2023/01/28 11:59:30;;;;;;;13.47;11.73;;;;;;;2.59;100.00;146708.91;5053890;28;20189;-61
2023/01/28 12:02:09;;;;;;;12.07;10.90;;;;;;;2.67;100.00;146728.97;5053459;28;20192;-61
2023/01/28 12:04:53;;;;;;;12.20;11.13;;;;;;;2.62;100.00;146717.69;5053356;28;20191;-63
2023/01/28 12:07:36;;;;;;;12.13;10.97;;;;;;;2.58;100.00;146707.63;5053341;28;20183;-60
2023/01/28 12:10:15;;;;;;;12.07;10.80;;;;;;;2.68;100.00;146732.72;5053501;28;20718;-62
2023/01/28 12:13:00;;;;;;;11.67;10.70;;;;;;;2.63;100.00;146718.94;5053436;28;20225;-61
2023/01/28 12:15:51;;;;;;;13.37;11.97;;;;;;;2.76;100.00;146752.81;5053155;28;20185;-60